Flight Track Log - Related Links

Times and Time Zones

All times are in EDT time to prevent confusion due to time zone crossing. See the KAP46 flight status page for this flight to view local times or setup timezone preferences in your user account.

Time Position Orientation Groundspeed Altitude Reporting Facility
EDT Latitude Longitude Course Direction KTS MPH feet Rate Location/Type
Sun 01:09:00 PM 44.8150 -74.7851 161° South  Level Estimated
Sun 01:10:00 PM 44.7907 -74.7731 161° South  Level Estimated
Sun 01:16:06 PM 44.7278 -74.5381 161° South 151 174 5,000  Level Boston Center
Sun 01:17:06 PM 44.6947 -74.5164 155° Southeast 145 167 5,600 550 Climbing Boston Center
Sun 01:18:06 PM 44.6597 -74.5006 162° South 133 153 6,100 550 Climbing Boston Center
Sun 01:19:06 PM 44.6244 -74.4875 165° South 128 147 6,700 600 Climbing Boston Center
Sun 01:20:06 PM 44.5892 -74.4747 166° South 128 147 7,300 550 Climbing Boston Center
Sun 01:21:06 PM 44.5519 -74.4589 163° South 128 147 7,800 550 Climbing Boston Center
Sun 01:22:06 PM 44.5189 -74.4489 168° South 128 147 8,400 550 Climbing Boston Center
Sun 01:23:06 PM 44.4817 -74.4361 166° South 128 147 8,900 300 Climbing Boston Center
Sun 01:24:06 PM 44.4381 -74.4172 163° South 133 153 9,000 50 Climbing Boston Center
Sun 01:25:06 PM 44.3925 -74.3983 163° South 154 177 9,000  Level Boston Center
Sun 01:26:06 PM 44.3450 -74.3792 164° South 168 193 9,000  Level Boston Center
Sun 01:27:06 PM 44.3014 -74.3661 168° South 174 200 9,000  Level Boston Center
Sun 01:28:06 PM 44.2581 -74.3444 160° South 168 193 9,000  Level Boston Center
Sun 01:29:06 PM 44.2169 -74.3142 152° Southeast 168 193 9,000  Level Boston Center
Sun 01:30:06 PM 44.1714 -74.2925 161° South 168 193 9,000  Level Boston Center
Sun 01:31:06 PM 44.1300 -74.2681 157° South 168 193 9,000  Level Boston Center
Sun 01:32:06 PM 44.0825 -74.2464 162° South 173 199 9,000  Level Boston Center
Sun 01:33:06 PM 44.0389 -74.2450 179° South 167 192 9,000  Level Boston Center
Sun 01:34:06 PM 43.9931 -74.2350 171° South 162 186 9,000  Level Boston Center
Sun 01:35:06 PM 43.9494 -74.2194 166° South 162 186 9,000  Level Boston Center
Sun 01:36:06 PM 43.9019 -74.2036 166° South 162 186 9,000  Level Boston Center
Sun 01:37:06 PM 43.8583 -74.1850 163° South 162 186 9,000  Level Boston Center
Sun 01:38:06 PM 43.8108 -74.1633 162° South 162 186 9,000  Level Boston Center
Sun 01:39:06 PM 43.7675 -74.1306 151° Southeast 170 196 9,000  Level Boston Center
Sun 01:40:06 PM 43.7286 -74.0892 142° Southeast 176 203 9,000  Level Boston Center
Sun 01:41:06 PM 43.6875 -74.0536 148° Southeast 182 209 9,000  Level Boston Center
Sun 01:42:06 PM 43.6461 -74.0153 146° Southeast 182 209 9,000  Level Boston Center
Sun 01:43:06 PM 43.6028 -73.9911 158° South 182 209 9,000  Level Boston Center
Sun 01:43:36 PM 43.5797 -73.9933 184° South 166 191 9,000  Level Boston Center
Sun 01:44:06 PM 43.5569 -73.9872 169° South 171 197 9,000  Level Boston Center
Sun 01:44:37 PM 43.5319 -73.9836 174° South 166 191 9,000  Level Boston Center
Sun 01:45:18 PM 43.4989 -73.9656 158° South 171 197 9,000  Level Boston Center
Sun 01:46:18 PM 43.4575 -73.9475 162° South 171 197 9,000  Level Boston Center
Sun 01:47:18 PM 43.4097 -73.9347 169° South 171 197 9,000  Level Boston Center
Sun 01:48:18 PM 43.3597 -73.9278 174° South 171 197 9,000 -200 Level Boston Center
Sun 01:49:18 PM 43.3161 -73.9239 176° South 182 209 8,600 -600 Descending Boston Center
Sun 01:50:18 PM 43.2600 -73.9142 173° South 182 209 7,800 -750 Descending Boston Center
Sun 01:51:42 PM 43.1850 -73.9036 174° South 198 228 6,800 -700 Descending Boston Center
Sun 01:52:18 PM 43.1519 -73.8944 169° South 198 228 6,400 -688 Descending Boston Center
Sun 01:53:18 PM 43.1039 -73.8847 172° South 198 228 5,700 -791 Descending Boston Center
Sun 01:53:49 PM 43.0728 -73.8839 179° South 185 213 5,200 -628 Descending Boston Center
Sun 01:54:44 PM 43.0292 -73.8717 168° South 173 199 4,800 -202 Descending Boston Center
Sun 01:55:18 PM 43.0125 -73.8683 172° South 167 192 4,900 179 Climbing Boston Center
Sun 01:55:51 PM 42.9897 -73.8678 179° South 126 145 5,000 -645 Climbing Boston Center
Sun 01:56:51 PM 42.9481 -73.8469 160° South 155 178 3,900 -1,039 Descending Boston Center
Sun 01:57:58 PM 42.8964 -73.8203 159° South 176 203 2,800 -787 Descending Boston Center
Sun 01:58:53 PM 42.8631 -73.8167 175° South 131 151 2,300 -609 Descending Boston Center
Sun 02:00:00 PM 42.8204 -73.8167 180° South  Level FlightAware Approximate
Sun 02:00:06 PM 42.8256 -73.8103 180° South 107 123 1,500  Level Boston Center
Sun 02:00:54 PM 42.7964 -73.8097 179° South 111 128 1,000 -550 Descending Boston Center
Sun 02:01:55 PM 42.7672 -73.8061 175° South 110 127 500 -492 Descending Boston Center
Sun 02:03:00 PM 42.7491 -73.8020 170° South  Level Estimated
Sun 02:10:00 PM 42.7491 -73.8020 170° South  Level Estimated

Login

Don't have an account? Register now (free) for customized features, flight alerts, and more!